createdAt,value
2023-01-05T00:01:33.637Z,100871.34
2023-01-05T00:04:00.428Z,100883.03
2023-01-05T00:06:27.133Z,100878.63
2023-01-05T00:08:53.730Z,100877.03
2023-01-05T00:11:42.891Z,100880.28
2023-01-05T00:14:43.519Z,100878.00
2023-01-05T00:17:34.790Z,100871.81
2023-01-05T00:20:20.244Z,100871.16
2023-01-05T00:22:48.104Z,100877.63
2023-01-05T00:25:23.543Z,100865.13
2023-01-05T00:27:51.861Z,100876.31
2023-01-05T00:30:21.611Z,100873.22
2023-01-05T00:32:48.472Z,100869.03
2023-01-05T00:35:16.039Z,100877.28
2023-01-05T00:37:43.361Z,100872.44
2023-01-05T00:40:12.917Z,100877.44
2023-01-05T00:42:39.921Z,100878.91
2023-01-05T00:45:08.371Z,100883.66
2023-01-05T00:47:35.161Z,100888.34
2023-01-05T00:50:01.876Z,100888.00
2023-01-05T00:52:28.474Z,100892.41
2023-01-05T00:54:55.136Z,100895.16
2023-01-05T00:57:21.845Z,100895.63
2023-01-05T00:59:48.536Z,100898.41
2023-01-05T01:02:15.753Z,100899.22
2023-01-05T01:04:42.722Z,100890.13
2023-01-05T01:07:09.376Z,100898.41
2023-01-05T01:09:37.361Z,100902.28
2023-01-05T01:12:04.329Z,100887.19
2023-01-05T01:14:31.027Z,100877.63
2023-01-05T01:16:57.879Z,100887.72
2023-01-05T01:19:26.199Z,100888.53
2023-01-05T01:21:53.100Z,100889.31
2023-01-05T01:24:26.669Z,100889.31
2023-01-05T01:26:54.761Z,100894.84
2023-01-05T01:29:22.174Z,100890.13
2023-01-05T01:31:50.324Z,100896.47
2023-01-05T01:34:17.493Z,100895.66
2023-01-05T01:36:44.873Z,100885.28
2023-01-05T01:39:12.536Z,100891.13
2023-01-05T01:41:39.487Z,100894.53
2023-01-05T01:44:43.864Z,100876.69
2023-01-05T01:47:17.069Z,100885.97
2023-01-05T01:49:44.425Z,100891.00
2023-01-05T01:52:11.669Z,100894.41
2023-01-05T01:54:39.161Z,100889.22
2023-01-05T01:57:06.318Z,100896.19
2023-01-05T01:59:33.115Z,100898.13
2023-01-05T02:02:01.728Z,100891.31
2023-01-05T02:04:31.868Z,100889.72
2023-01-05T02:06:59.403Z,100890.84
2023-01-05T02:09:26.432Z,100888.56
2023-01-05T02:12:10.230Z,100901.22
2023-01-05T02:14:53.816Z,100887.44
2023-01-05T02:17:26.283Z,100883.38
2023-01-05T02:20:10.783Z,100884.50
2023-01-05T02:23:02.274Z,100885.03
2023-01-05T02:25:41.540Z,100881.91
2023-01-05T02:28:26.379Z,100885.63
2023-01-05T02:31:13.714Z,100886.16
2023-01-05T02:34:14.776Z,100885.50
2023-01-05T02:37:01.650Z,100886.28
2023-01-05T02:39:34.282Z,100880.44
2023-01-05T02:42:10.575Z,100879.28
2023-01-05T02:44:37.351Z,100883.69
2023-01-05T02:47:05.836Z,100883.34
2023-01-05T02:49:38.173Z,100875.88
2023-01-05T02:52:06.550Z,100875.88
2023-01-05T02:54:44.132Z,100877.03
2023-01-05T02:57:17.205Z,100873.13
2023-01-05T02:59:53.477Z,100870.88
2023-01-05T03:02:27.675Z,100871.34
2023-01-05T03:05:19.152Z,100849.75
2023-01-05T03:07:47.980Z,100847.44
2023-01-05T03:10:33.800Z,100850.69
2023-01-05T03:13:24.146Z,100844.50
2023-01-05T03:15:58.779Z,100854.09
2023-01-05T03:18:26.997Z,100834.44
2023-01-05T03:20:55.331Z,100837.69
2023-01-05T03:23:42.159Z,100831.03
2023-01-05T03:26:30.371Z,100840.91
2023-01-05T03:29:18.222Z,100824.34
2023-01-05T03:32:20.611Z,100818.34
2023-01-05T03:35:22.452Z,100822.94
2023-01-05T03:37:55.630Z,100822.31
2023-01-05T03:40:27.477Z,100824.56
2023-01-05T03:42:55.038Z,100816.63
2023-01-05T03:45:23.164Z,100815.69
2023-01-05T03:47:50.348Z,100810.16
2023-01-05T03:50:17.151Z,100801.53
2023-01-05T03:52:43.816Z,100796.84
2023-01-05T03:55:10.596Z,100790.66
2023-01-05T03:57:37.265Z,100778.47
2023-01-05T04:00:05.570Z,100776.16
2023-01-05T04:02:32.390Z,100783.00
2023-01-05T04:04:59.487Z,100774.38
2023-01-05T04:07:26.200Z,100760.25
2023-01-05T04:09:53.899Z,100766.56
2023-01-05T04:12:20.553Z,100765.09
2023-01-05T04:14:47.142Z,100754.06
2023-01-05T04:17:13.746Z,100754.88
2023-01-05T04:19:40.432Z,100749.81
2023-01-05T04:22:07.018Z,100745.47
2023-01-05T04:24:33.618Z,100745.94
2023-01-05T04:27:00.297Z,100747.56
2023-01-05T04:29:29.077Z,100748.34
2023-01-05T04:31:55.754Z,100753.56
2023-01-05T04:34:22.417Z,100759.53
2023-01-05T04:36:49.648Z,100740.22
2023-01-05T04:39:16.322Z,100737.94
2023-01-05T04:41:43.065Z,100746.69
2023-01-05T04:44:09.788Z,100749.94
2023-01-05T04:46:36.512Z,100731.44
2023-01-05T04:49:03.249Z,100732.22
2023-01-05T04:51:30.074Z,100731.06
2023-01-05T04:53:56.689Z,100734.66
2023-01-05T04:56:23.473Z,100731.06
2023-01-05T04:58:50.120Z,100729.94
2023-01-05T05:01:16.957Z,100737.53
2023-01-05T05:03:43.726Z,100733.66
2023-01-05T05:06:10.617Z,100733.66
2023-01-05T05:08:39.271Z,100728.59
2023-01-05T05:11:06.934Z,100718.72
2023-01-05T05:13:33.699Z,100715.94
2023-01-05T05:16:00.484Z,100709.25
2023-01-05T05:18:27.189Z,100705.38
2023-01-05T05:20:53.801Z,100701.78
2023-01-05T05:23:20.565Z,100689.94
2023-01-05T05:25:50.416Z,100694.31
2023-01-05T05:28:17.719Z,100692.03
2023-01-05T05:30:44.405Z,100688.13
2023-01-05T05:33:11.103Z,100691.72
2023-01-05T05:35:39.345Z,100685.38
2023-01-05T05:38:06.006Z,100695.25
2023-01-05T05:40:32.691Z,100682.94
2023-01-05T05:42:59.376Z,100677.75
2023-01-05T05:45:26.075Z,100677.75
2023-01-05T05:47:53.774Z,100666.25
2023-01-05T05:50:20.510Z,100659.09
2023-01-05T05:52:47.203Z,100664.97
2023-01-05T05:55:13.832Z,100658.63
2023-01-05T05:57:40.419Z,100645.16
2023-01-05T06:00:07.700Z,100649.88
2023-01-05T06:02:34.511Z,100645.03
2023-01-05T06:05:01.203Z,100650.56
2023-01-05T06:07:27.776Z,100656.06
2023-01-05T06:09:54.439Z,100648.94
2023-01-05T06:12:21.057Z,100641.00
2023-01-05T06:14:47.934Z,100640.63
2023-01-05T06:17:14.617Z,100645.03
2023-01-05T06:19:41.217Z,100637.88
2023-01-05T06:22:07.848Z,100636.25
2023-01-05T06:24:34.497Z,100636.25
2023-01-05T06:27:01.088Z,100632.34
2023-01-05T06:29:27.739Z,100633.16
2023-01-05T06:31:54.414Z,100639.50
2023-01-05T06:34:21.214Z,100624.53
2023-01-05T06:36:49.223Z,100619.03
2023-01-05T06:39:15.883Z,100615.59
2023-01-05T06:41:42.532Z,100609.25
2023-01-05T06:44:09.576Z,100600.19
2023-01-05T06:46:36.207Z,100608.94
2023-01-05T06:49:02.931Z,100600.66
2023-01-05T06:51:29.525Z,100609.41
2023-01-05T06:53:56.175Z,100602.41
2023-01-05T06:56:22.838Z,100598.59
2023-01-05T06:58:49.537Z,100601.31
2023-01-05T07:01:16.338Z,100597.66
2023-01-05T07:03:43.081Z,100603.78
2023-01-05T07:06:14.963Z,100592.88
2023-01-05T07:08:42.084Z,100587.00
2023-01-05T07:11:08.871Z,100584.38
2023-01-05T07:13:35.499Z,100584.00
2023-01-05T07:16:02.344Z,100582.88
2023-01-05T07:18:29.123Z,100582.88
2023-01-05T07:20:55.776Z,100569.53
2023-01-05T07:23:22.458Z,100573.91
2023-01-05T07:25:49.094Z,100572.63
2023-01-05T07:28:15.742Z,100567.91
2023-01-05T07:30:42.392Z,100568.72
2023-01-05T07:33:09.066Z,100567.56
2023-01-05T07:35:35.668Z,100569.97
2023-01-05T07:38:03.498Z,100564.94
2023-01-05T07:40:30.107Z,100567.34
2023-01-05T07:42:56.715Z,100568.16
2023-01-05T07:45:23.459Z,100558.72
2023-01-05T07:47:50.228Z,100564.38
2023-01-05T07:50:16.907Z,100566.00
2023-01-05T07:52:43.620Z,100563.69
2023-01-05T07:55:10.387Z,100558.28
2023-01-05T07:57:37.148Z,100552.41
2023-01-05T08:00:05.339Z,100558.75
2023-01-05T08:02:36.083Z,100548.16
2023-01-05T08:05:03.268Z,100544.72
2023-01-05T08:07:29.875Z,100542.84
2023-01-05T08:10:15.893Z,100546.09
2023-01-05T08:13:01.379Z,100550.91
2023-01-05T08:15:28.005Z,100535.97
2023-01-05T08:17:54.645Z,100537.59
2023-01-05T08:20:21.400Z,100542.44
2023-01-05T08:22:51.885Z,100534.59
2023-01-05T08:25:19.269Z,100544.47
2023-01-05T08:27:46.967Z,100549.31
2023-01-05T08:30:14.651Z,100539.53
2023-01-05T08:32:42.094Z,100540.00
2023-01-05T08:36:08.296Z,100538.97
2023-01-05T08:38:35.004Z,100529.16
2023-01-05T08:41:01.679Z,100523.75
2023-01-05T08:43:28.314Z,100526.28
2023-01-05T08:45:55.144Z,100529.84
2023-01-05T08:48:21.918Z,100521.22
2023-01-05T08:50:48.684Z,100507.03
2023-01-05T08:53:15.329Z,100518.91
2023-01-05T08:55:41.995Z,100508.28
2023-01-05T08:58:08.661Z,100515.44
2023-01-05T09:00:36.041Z,100515.09
2023-01-05T09:03:02.835Z,100522.41
2023-01-05T09:05:29.678Z,100519.72
2023-01-05T09:07:56.343Z,100523.41
2023-01-05T09:10:23.075Z,100515.25
2023-01-05T09:12:49.881Z,100512.94
2023-01-05T09:15:16.547Z,100500.34
2023-01-05T09:17:43.367Z,100507.16
2023-01-05T09:20:10.500Z,100500.91
2023-01-05T09:22:37.246Z,100493.50
2023-01-05T09:25:04.524Z,100494.78
2023-01-05T09:27:31.751Z,100499.63
2023-01-05T09:29:58.478Z,100477.47
2023-01-05T09:32:25.327Z,100498.56
2023-01-05T09:34:52.003Z,100484.38
2023-01-05T09:37:18.675Z,100480.09
2023-01-05T09:39:45.408Z,100460.84
2023-01-05T09:42:19.790Z,100463.69
2023-01-05T09:44:56.962Z,100463.69
2023-01-05T09:47:41.415Z,100463.34
2023-01-05T09:50:18.034Z,100464.13
2023-01-05T09:52:44.819Z,100454.34
2023-01-05T09:55:20.179Z,100447.31
2023-01-05T09:57:54.653Z,100434.72
2023-01-05T10:00:24.066Z,100421.66
2023-01-05T10:02:55.286Z,100431.59
2023-01-05T10:05:23.998Z,100437.13
2023-01-05T10:08:32.346Z,100430.44
2023-01-05T10:11:23.633Z,100416.59
2023-01-05T10:14:16.446Z,100411.06
2023-01-05T10:16:45.173Z,100413.72
2023-01-05T10:19:18.565Z,100403.78
2023-01-05T10:22:05.314Z,100406.56
2023-01-05T10:24:37.725Z,100411.06
2023-01-05T10:27:25.850Z,100400.06
2023-01-05T10:30:23.603Z,100403.75
2023-01-05T10:33:26.418Z,100396.25
2023-01-05T10:36:57.612Z,100387.19
2023-01-05T10:39:22.388Z,100386.03
2023-01-05T10:41:51.877Z,100380.16
2023-01-05T10:44:21.266Z,100372.75
2023-01-05T10:46:52.760Z,100375.97
2023-01-05T10:49:25.983Z,100368.91
2023-01-05T10:51:56.582Z,100361.06
2023-01-05T10:54:37.588Z,100365.84
2023-01-05T10:57:34.494Z,100358.03
2023-01-05T11:00:13.310Z,100354.88
2023-01-05T11:02:59.792Z,100365.25
2023-01-05T11:05:28.296Z,100357.38
2023-01-05T11:07:58.662Z,100353.53
2023-01-05T11:10:31.676Z,100355.16
2023-01-05T11:13:18.412Z,100351.28
2023-01-05T11:16:13.270Z,100337.97
2023-01-05T11:18:48.745Z,100338.88
2023-01-05T11:21:19.668Z,100330.19
2023-01-05T11:23:51.502Z,100328.66
2023-01-05T11:26:18.055Z,100323.13
2023-01-05T11:29:01.541Z,100322.41
2023-01-05T11:32:05.298Z,100303.09
2023-01-05T11:34:47.850Z,100304.34
2023-01-05T11:37:24.972Z,100275.44
2023-01-05T11:39:57.419Z,100277.06
2023-01-05T11:42:25.915Z,100283.41
2023-01-05T11:45:00.558Z,100270.78
2023-01-05T11:47:50.538Z,100271.22
2023-01-05T11:50:27.683Z,100254.25
2023-01-05T11:52:57.211Z,100252.25
2023-01-05T11:55:37.965Z,100237.66
2023-01-05T11:58:25.838Z,100238.09
2023-01-05T12:01:23.628Z,100234.19
2023-01-05T12:04:01.407Z,100226.66
2023-01-05T12:06:48.339Z,100234.19
2023-01-05T12:09:35.805Z,100213.63
2023-01-05T12:12:14.877Z,100210.84
2023-01-05T12:14:46.697Z,100198.56
2023-01-05T12:17:15.193Z,100195.78
2023-01-05T12:20:01.496Z,100185.94
2023-01-05T12:22:36.341Z,100186.75
2023-01-05T12:25:14.629Z,100159.03
2023-01-05T12:28:40.101Z,100167.34
2023-01-05T12:35:27.441Z,100153.06
2023-01-05T12:38:06.133Z,100149.13
2023-01-05T12:41:05.034Z,100146.34
2023-01-05T12:43:46.836Z,100142.38
2023-01-05T12:46:24.558Z,100134.50
2023-01-05T12:48:57.696Z,100133.78
2023-01-05T12:52:06.294Z,100121.25
2023-01-05T12:54:50.283Z,100126.50
2023-01-05T12:57:25.279Z,100114.25
2023-01-05T13:00:00.589Z,100107.97
2023-01-05T13:02:39.444Z,100091.34
2023-01-05T13:05:19.752Z,100087.44
2023-01-05T13:08:17.543Z,100100.91
2023-01-05T13:11:04.917Z,100087.84
2023-01-05T13:13:39.298Z,100086.25
2023-01-05T13:16:13.178Z,100084.69
2023-01-05T13:18:46.235Z,100073.59
2023-01-05T13:21:15.400Z,100073.59
2023-01-05T13:23:53.734Z,100059.72
2023-01-05T13:26:22.808Z,100052.59
2023-01-05T13:28:56.268Z,100048.22
2023-01-05T13:31:41.698Z,100051.00
2023-01-05T13:34:23.761Z,100044.22
2023-01-05T13:37:14.536Z,100050.13
2023-01-05T13:40:04.586Z,100039.03
2023-01-05T13:43:02.099Z,100019.63
2023-01-05T13:45:57.736Z,100030.72
2023-01-05T13:48:38.294Z,100020.06
2023-01-05T13:51:15.414Z,100017.69
2023-01-05T13:53:43.014Z,100000.75
2023-01-05T13:56:15.630Z,100012.72
2023-01-05T13:58:45.972Z,99999.69
2023-01-05T14:01:33.215Z,99991.81
2023-01-05T14:04:00.685Z,100000.97
2023-01-05T14:06:31.032Z,99985.56
2023-01-05T14:09:29.633Z,99986.34
2023-01-05T14:12:08.636Z,99974.06
2023-01-05T14:15:00.382Z,99964.22
2023-01-05T14:17:55.691Z,99963.41
2023-01-05T14:20:44.626Z,99953.13
2023-01-05T14:23:26.406Z,99950.72
2023-01-05T14:25:54.344Z,99947.94
2023-01-05T14:28:28.136Z,99932.84
2023-01-05T14:31:15.408Z,99915.38
2023-01-05T14:34:07.700Z,99938.78
2023-01-05T14:36:47.346Z,99930.00
2023-01-05T14:39:30.004Z,99912.13
2023-01-05T14:42:11.921Z,99905.00
2023-01-05T14:45:03.457Z,99898.22
2023-01-05T14:47:48.405Z,99902.16
2023-01-05T14:50:35.358Z,99880.72
2023-01-05T14:53:34.584Z,99883.09
2023-01-05T14:56:01.334Z,99897.34
2023-01-05T14:58:55.857Z,99868.00
2023-01-05T15:02:02.810Z,99873.53
2023-01-05T15:04:41.824Z,99852.16
2023-01-05T15:07:31.519Z,99873.47
2023-01-05T15:10:23.335Z,99874.22
2023-01-05T15:12:53.271Z,99871.78
2023-01-05T15:15:42.711Z,99866.56
2023-01-05T15:18:37.900Z,99856.91
2023-01-05T15:21:16.980Z,99861.22
2023-01-05T15:23:56.595Z,99871.44
2023-01-05T15:26:25.975Z,99855.50
2023-01-05T15:29:01.008Z,99866.53
2023-01-05T15:31:50.186Z,99864.50
2023-01-05T15:34:23.558Z,99866.03
2023-01-05T15:37:05.405Z,99866.44
2023-01-05T15:39:37.441Z,99863.97
2023-01-05T15:42:09.107Z,99856.00
2023-01-05T15:44:43.211Z,99867.06
2023-01-05T15:47:10.979Z,99860.66
2023-01-05T15:49:38.531Z,99856.22
2023-01-05T15:52:06.130Z,99870.00
2023-01-05T15:54:33.807Z,99847.00
2023-01-05T15:57:02.281Z,99843.78
2023-01-05T15:59:30.885Z,99850.09
2023-01-05T16:02:00.169Z,99848.47
2023-01-05T16:04:27.717Z,99854.00
2023-01-05T16:07:03.162Z,99855.56
2023-01-05T16:09:35.536Z,99864.22
2023-01-05T16:12:06.087Z,99860.22
2023-01-05T16:14:46.435Z,99861.34
2023-01-05T16:17:17.715Z,99864.84
2023-01-05T16:19:44.366Z,99868.72
2023-01-05T16:22:26.984Z,99869.47
2023-01-05T16:25:39.598Z,99879.31
2023-01-05T16:28:13.764Z,99899.41
2023-01-05T16:30:42.921Z,99899.38
2023-01-05T16:33:15.444Z,99900.41
2023-01-05T16:35:46.165Z,99906.16
2023-01-05T16:38:32.266Z,99892.91
2023-01-05T16:41:01.786Z,99903.81
2023-01-05T16:43:36.623Z,99930.19
2023-01-05T16:46:26.299Z,99923.25
2023-01-05T16:48:56.895Z,99921.06
2023-01-05T16:51:32.607Z,99927.22
2023-01-05T16:54:14.964Z,99918.75
2023-01-05T16:57:01.718Z,99919.75
2023-01-05T16:59:40.329Z,99925.16
2023-01-05T17:02:29.178Z,99928.91
2023-01-05T17:04:55.814Z,99933.19
2023-01-05T17:07:22.926Z,99922.84
2023-01-05T17:09:50.385Z,99918.41
2023-01-05T17:12:17.575Z,99917.94
2023-01-05T17:14:45.714Z,99907.97
2023-01-05T17:17:13.274Z,99908.69
2023-01-05T17:19:40.530Z,99918.88
2023-01-05T17:22:11.532Z,99918.78
2023-01-05T17:24:40.834Z,99911.19
2023-01-05T17:27:09.992Z,99913.09
2023-01-05T17:29:37.240Z,99923.25
2023-01-05T17:32:04.007Z,99918.44
2023-01-05T17:34:30.756Z,99918.44
2023-01-05T17:36:59.911Z,99908.56
2023-01-05T17:39:26.537Z,99908.88
2023-01-05T17:41:53.419Z,99899.34
2023-01-05T17:44:20.380Z,99909.97
2023-01-05T17:46:47.850Z,99900.81
2023-01-05T17:49:17.079Z,99904.72
2023-01-05T17:51:44.146Z,99901.50
2023-01-05T17:54:11.377Z,99918.09
2023-01-05T17:56:38.378Z,99907.31
2023-01-05T17:59:05.489Z,99896.59
2023-01-05T18:01:34.000Z,99882.25
2023-01-05T18:04:01.167Z,99875.16
2023-01-05T18:06:27.933Z,99880.66
2023-01-05T18:08:54.694Z,99876.66
2023-01-05T18:11:21.590Z,99886.91
2023-01-05T18:13:48.414Z,99888.75
2023-01-05T18:16:15.689Z,99891.06
2023-01-05T18:18:42.422Z,99891.44
2023-01-05T18:21:09.182Z,99884.31
2023-01-05T18:23:36.332Z,99900.88
2023-01-05T18:26:06.021Z,99902.38
2023-01-05T18:28:33.158Z,99903.56
2023-01-05T18:31:01.266Z,99901.50
2023-01-05T18:33:28.462Z,99921.97
2023-01-05T18:38:26.847Z,99901.78
2023-01-05T18:40:54.592Z,99897.41
2023-01-05T18:43:21.535Z,99903.63
2023-01-05T18:45:54.610Z,99904.44
2023-01-05T18:48:21.555Z,99899.25
2023-01-05T18:50:51.227Z,99897.66
2023-01-05T18:53:19.393Z,99901.13
2023-01-05T18:55:46.369Z,99898.72
2023-01-05T18:58:13.996Z,99896.31
2023-01-05T19:00:45.159Z,99897.81
2023-01-05T19:03:12.359Z,99892.66
2023-01-05T19:05:41.130Z,99894.94
2023-01-05T19:08:12.315Z,99901.91
2023-01-05T19:10:39.105Z,99899.84
2023-01-05T19:13:05.839Z,99901.34
2023-01-05T19:15:34.265Z,99896.53
2023-01-05T19:18:00.992Z,99897.25
2023-01-05T19:20:27.701Z,99893.66
2023-01-05T19:22:55.077Z,99912.97
2023-01-05T19:25:21.734Z,99900.38
2023-01-05T19:27:48.417Z,99898.75
2023-01-05T19:30:17.731Z,99899.44
2023-01-05T19:32:44.617Z,99911.19
2023-01-05T19:35:11.416Z,99909.84
2023-01-05T19:37:42.498Z,99917.56
2023-01-05T19:40:10.448Z,99893.31
2023-01-05T19:42:37.223Z,99899.50
2023-01-05T19:45:04.249Z,99908.03
2023-01-05T19:47:31.180Z,99896.56
2023-01-05T19:49:57.857Z,99905.53
2023-01-05T19:52:29.604Z,99904.63
2023-01-05T19:54:56.617Z,99900.25
2023-01-05T19:57:23.693Z,99892.69
2023-01-05T19:59:51.409Z,99898.19
2023-01-05T20:02:18.423Z,99898.19
2023-01-05T20:04:46.690Z,99895.78
2023-01-05T20:07:13.818Z,99904.41
2023-01-05T20:09:41.141Z,99901.63
2023-01-05T20:12:14.750Z,99915.41
2023-01-05T20:14:43.133Z,99906.38
2023-01-05T20:17:11.372Z,99896.50
2023-01-05T20:19:39.384Z,99898.44
2023-01-05T20:22:07.859Z,99894.53
2023-01-05T20:24:38.849Z,99898.31
2023-01-05T20:27:08.521Z,99897.88
2023-01-05T20:29:36.438Z,99904.19
2023-01-05T20:32:07.211Z,99898.69
2023-01-05T20:34:36.902Z,99911.19
2023-01-05T20:37:07.970Z,99903.28
2023-01-05T20:39:36.384Z,99911.91
2023-01-05T20:42:08.146Z,99907.88
2023-01-05T20:44:37.323Z,99911.78
2023-01-05T20:47:05.729Z,99924.78
2023-01-05T20:49:33.392Z,99910.19
2023-01-05T20:52:00.210Z,99912.50
2023-01-05T20:54:27.308Z,99904.56
2023-01-05T20:56:54.406Z,99911.56
2023-01-05T20:59:33.004Z,99915.47
2023-01-05T21:02:00.448Z,99916.19
2023-01-05T21:04:29.115Z,99922.81
2023-01-05T21:06:59.361Z,99912.50
2023-01-05T21:09:29.288Z,99919.19
2023-01-05T21:11:56.917Z,99921.00
2023-01-05T21:14:23.654Z,99913.41
2023-01-05T21:16:53.516Z,99926.75
2023-01-05T21:19:23.674Z,99927.88
2023-01-05T21:21:55.371Z,99926.63
2023-01-05T21:24:23.189Z,99921.03
2023-01-05T21:26:49.835Z,99910.69
2023-01-05T21:29:19.247Z,99916.88
2023-01-05T21:31:46.531Z,99924.69
2023-01-05T21:34:13.982Z,99926.19
2023-01-05T21:36:45.826Z,99915.50
2023-01-05T21:39:24.793Z,99917.34
2023-01-05T21:42:11.724Z,99929.03
2023-01-05T21:44:39.723Z,99927.78
2023-01-05T21:47:06.946Z,99928.09
2023-01-05T21:49:34.893Z,99927.66
2023-01-05T21:52:20.367Z,99946.47
2023-01-05T21:55:05.450Z,99951.53
2023-01-05T21:57:32.755Z,99946.69
2023-01-05T21:59:59.958Z,99949.78
2023-01-05T22:02:26.580Z,99951.25
2023-01-05T22:04:53.264Z,99950.81
2023-01-05T22:07:19.978Z,99953.09
2023-01-05T22:09:46.694Z,99940.84
2023-01-05T22:12:14.035Z,99945.53
2023-01-05T22:14:41.061Z,99942.31
2023-01-05T22:17:08.988Z,99943.81
2023-01-05T22:19:35.943Z,99947.69
2023-01-05T22:22:04.172Z,99941.72
2023-01-05T22:24:30.849Z,99955.50
2023-01-05T22:26:57.783Z,99946.78
2023-01-05T22:29:24.642Z,99964.06
2023-01-05T22:31:51.542Z,99955.38
2023-01-05T22:34:18.289Z,99962.81
2023-01-05T22:36:45.373Z,99971.06
2023-01-05T22:39:12.564Z,99967.53
2023-01-05T22:41:39.988Z,99967.03
2023-01-05T22:44:06.836Z,99970.97
2023-01-05T22:46:34.274Z,99968.06
2023-01-05T22:49:02.171Z,99975.50
2023-01-05T22:51:35.516Z,99976.69
2023-01-05T22:54:03.292Z,99973.94
2023-01-05T22:56:31.936Z,99966.00
2023-01-05T22:58:58.803Z,99980.44
2023-01-05T23:01:43.097Z,99986.28
2023-01-05T23:04:09.799Z,99986.59
2023-01-05T23:06:36.404Z,99974.34
2023-01-05T23:09:04.898Z,99983.75
2023-01-05T23:11:35.082Z,99987.63
2023-01-05T23:14:04.205Z,99995.41
2023-01-05T23:16:32.266Z,100000.91
2023-01-05T23:18:59.044Z,99998.97
2023-01-05T23:21:27.296Z,99990.38
2023-01-05T23:23:55.709Z,100003.31
2023-01-05T23:26:23.604Z,100019.50
2023-01-05T23:28:50.282Z,100020.19
2023-01-05T23:31:19.161Z,100013.06
2023-01-05T23:33:47.275Z,100016.47
2023-01-05T23:36:16.048Z,100014.88
2023-01-05T23:38:43.034Z,100012.81
2023-01-05T23:41:11.623Z,100017.84
2023-01-05T23:43:39.536Z,100018.66
2023-01-05T23:46:09.008Z,100012.34
2023-01-05T23:48:36.545Z,100018.97
2023-01-05T23:51:05.050Z,100013.81
2023-01-05T23:53:32.290Z,100021.25
2023-01-05T23:56:30.224Z,100008.19
2023-01-05T23:58:59.167Z,100023.06
